Time;durP1;ratioP1;P1;durP2;ratioP2;P2;SDS_P1;SDS_P2;PMS_P1;PMS_P2;Temp;Humidity;BMP_temperature;BMP_pressure;BME280_temperature;BME280_humidity;BME280_pressure;Samples;Min_cycle;Max_cycle;Signal;HPM_P1;HPM_P2
2021/11/07 00:04:50;;;;;;;23.58;5.38;;;;;;;10.57;100.00;101736.28;5028921;28;20084;-75
2021/11/07 00:07:25;;;;;;;15.80;4.10;;;;;;;10.62;100.00;101730.84;5028177;28;20394;-76
2021/11/07 00:10:04;;;;;;;15.88;4.82;;;;;;;10.60;100.00;101722.84;5025599;28;20132;-77
2021/11/07 00:12:38;;;;;;;20.58;4.95;;;;;;;10.61;100.00;101721.09;5031308;28;20095;-76
2021/11/07 00:15:09;;;;;;;18.30;4.40;;;;;;;10.60;100.00;101722.84;5024773;28;20056;-75
2021/11/07 00:17:37;;;;;;;25.45;5.82;;;;;;;10.63;100.00;101721.94;5032692;28;20095;-75
2021/11/07 00:20:16;;;;;;;21.25;4.70;;;;;;;10.68;100.00;101729.88;5028941;28;20068;-75
2021/11/07 00:22:50;;;;;;;19.75;4.95;;;;;;;10.67;100.00;101715.59;5024824;28;20489;-68
2021/11/07 00:25:24;;;;;;;23.13;4.82;;;;;;;10.76;100.00;101727.91;5031328;28;20504;-67
2021/11/07 00:27:55;;;;;;;19.23;4.78;;;;;;;10.80;100.00;101726.97;5023576;28;20091;-69
2021/11/07 00:30:34;;;;;;;18.35;5.13;;;;;;;10.74;100.00;101722.59;5034466;28;20053;-67
2021/11/07 00:33:15;;;;;;;27.40;4.68;;;;;;;10.74;100.00;101716.38;5026282;28;20096;-67
2021/11/07 00:35:57;;;;;;;21.05;5.03;;;;;;;10.78;100.00;101721.63;5021603;28;20135;-75
2021/11/07 00:38:35;;;;;;;19.42;5.88;;;;;;;10.79;100.00;101714.50;5031098;28;20048;-73
2021/11/07 00:41:13;;;;;;;18.33;5.50;;;;;;;10.84;100.00;101720.63;5026687;28;20063;-74
2021/11/07 00:43:44;;;;;;;16.10;4.82;;;;;;;10.86;100.00;101716.13;5023686;28;20071;-74
2021/11/07 00:46:18;;;;;;;14.65;4.82;;;;;;;10.84;100.00;101720.63;5031958;28;20585;-73
2021/11/07 00:48:49;;;;;;;;;;;;;;;10.90;100.00;101725.00;5023234;28;20110;-74
2021/11/07 00:51:21;;;;;;;16.33;5.43;;;;;;;10.94;100.00;101719.53;5030178;28;20023;-66
2021/11/07 00:54:00;;;;;;;19.85;5.50;;;;;;;10.98;100.00;101718.59;5021184;28;20057;-73
2021/11/07 00:56:35;;;;;;;16.98;5.30;;;;;;;11.10;100.00;101712.13;5026599;28;20036;-76
2021/11/07 00:59:14;;;;;;;21.35;6.18;;;;;;;11.11;100.00;101695.16;5030889;28;20224;-68
2021/11/07 01:01:47;;;;;;;19.35;5.40;;;;;;;11.12;100.00;101693.41;5022792;28;20249;-68
2021/11/07 01:04:15;;;;;;;17.77;5.47;;;;;;;11.10;100.00;101706.78;5028722;28;20065;-68
2021/11/07 01:06:45;;;;;;;19.92;6.53;;;;;;;11.14;100.00;101708.47;5024007;28;20693;-68
2021/11/07 01:09:14;;;;;;;22.80;7.20;;;;;;;11.18;100.00;101695.94;5025212;28;20771;-69
2021/11/07 01:11:42;;;;;;;18.38;5.32;;;;;;;11.18;100.00;101682.56;5032005;28;20485;-68
2021/11/07 01:14:15;;;;;;;22.20;6.25;;;;;;;11.26;100.00;101687.75;5022845;28;20145;-68
2021/11/07 01:16:43;;;;;;;15.50;7.43;;;;;;;11.25;100.00;101688.66;5030573;28;20139;-68
2021/11/07 01:19:11;;;;;;;20.30;7.05;;;;;;;11.24;100.00;101681.56;5023810;28;20473;-68
2021/11/07 01:21:42;;;;;;;21.13;6.82;;;;;;;11.19;100.00;101682.53;5030266;28;20052;-68
2021/11/07 01:24:15;;;;;;;20.08;7.20;;;;;;;11.23;100.00;101699.38;5030190;28;20056;-68
2021/11/07 01:26:46;;;;;;;20.67;6.95;;;;;;;11.32;100.00;101674.25;5022611;28;20041;-68
2021/11/07 01:29:15;;;;;;;17.15;6.35;;;;;;;11.36;100.00;101684.84;5027290;28;20045;-67
2021/11/07 01:31:45;;;;;;;18.27;7.07;;;;;;;11.43;100.00;101671.38;5024967;28;20585;-69
2021/11/07 01:34:19;;;;;;;25.75;9.20;;;;;;;11.45;100.00;101680.22;5029983;28;20053;-67
2021/11/07 01:36:49;;;;;;;;;;;;;;;11.39;100.00;101675.88;5022757;28;20497;-67
2021/11/07 01:39:21;;;;;;;25.80;6.78;;;;;;;11.39;100.00;101673.19;5023015;28;20376;-67
2021/11/07 01:42:03;;;;;;;19.95;7.10;;;;;;;11.39;100.00;101670.53;5031373;28;20140;-67
2021/11/07 01:44:41;;;;;;;22.55;7.38;;;;;;;11.40;100.00;101667.81;5020533;28;20914;-67
2021/11/07 01:47:10;;;;;;;29.02;7.40;;;;;;;11.50;100.00;101675.66;5028411;28;20065;-65
2021/11/07 01:49:41;;;;;;;19.35;7.65;;;;;;;11.49;100.00;101658.75;5019783;28;20050;-67
2021/11/07 01:52:10;;;;;;;21.17;7.57;;;;;;;11.47;100.00;101659.69;5022346;28;20609;-72
2021/11/07 01:54:50;;;;;;;21.48;7.50;;;;;;;11.38;100.00;101660.78;5030105;28;20095;-73
2021/11/07 01:57:21;;;;;;;20.73;7.82;;;;;;;11.45;100.00;101653.50;5021935;28;20393;-74
2021/11/07 01:59:56;;;;;;;24.65;9.40;;;;;;;11.48;100.00;101662.31;5027391;28;20218;-73
2021/11/07 02:02:32;;;;;;;19.65;8.02;;;;;;;11.48;100.00;101650.75;5023248;28;20119;-73
2021/11/07 02:05:01;;;;;;;23.45;7.00;;;;;;;11.46;100.00;101653.47;5021523;28;20641;-73
2021/11/07 02:07:29;;;;;;;21.42;7.45;;;;;;;11.47;100.00;101647.19;5030260;28;20608;-67
2021/11/07 02:10:00;;;;;;;20.38;8.00;;;;;;;11.47;100.00;101640.97;5021982;28;20061;-67
2021/11/07 02:12:28;;;;;;;22.08;7.60;;;;;;;11.54;100.00;101635.47;5029034;28;20466;-67
2021/11/07 02:14:57;;;;;;;19.92;8.25;;;;;;;11.47;100.00;101630.28;5020383;28;20119;-67
2021/11/07 02:17:25;;;;;;;24.75;8.07;;;;;;;11.49;100.00;101624.00;5033836;28;20052;-67
2021/11/07 02:19:54;;;;;;;25.42;9.60;;;;;;;11.49;100.00;101621.34;5026249;28;20056;-67
2021/11/07 02:22:23;;;;;;;19.48;7.05;;;;;;;11.49;100.00;101623.09;5019870;28;20755;-67
2021/11/07 02:24:51;;;;;;;19.85;6.65;;;;;;;11.52;100.00;101607.88;5024864;28;20079;-67
2021/11/07 02:27:19;;;;;;;20.25;7.07;;;;;;;11.48;100.00;101608.88;5021225;28;20041;-66
2021/11/07 02:29:47;;;;;;;22.02;6.93;;;;;;;11.43;100.00;101625.94;5030005;28;20151;-67
2021/11/07 02:32:15;;;;;;;20.92;7.28;;;;;;;11.48;100.00;101624.91;5021400;28;20103;-67
2021/11/07 02:34:46;;;;;;;19.20;8.18;;;;;;;11.49;100.00;101615.09;5020661;28;20146;-67
2021/11/07 02:37:14;;;;;;;20.02;7.68;;;;;;;11.53;100.00;101614.13;5028309;28;20636;-67
2021/11/07 02:39:43;;;;;;;20.20;6.78;;;;;;;11.50;100.00;101600.81;5022598;28;20075;-67
2021/11/07 02:42:12;;;;;;;17.67;7.40;;;;;;;11.50;100.00;101607.03;5029712;28;20409;-67
2021/11/07 02:44:44;;;;;;;20.08;6.40;;;;;;;11.48;100.00;101603.53;5022900;28;20091;-67
2021/11/07 02:47:14;;;;;;;16.95;6.97;;;;;;;11.50;100.00;101592.81;5027567;28;20093;-67
2021/11/07 02:49:43;;;;;;;24.65;7.20;;;;;;;11.48;100.00;101594.63;5022285;28;20066;-67
2021/11/07 02:52:13;;;;;;;24.30;6.63;;;;;;;11.50;100.00;101600.81;5018243;28;20069;-67
2021/11/07 02:54:43;;;;;;;17.33;6.47;;;;;;;11.52;100.00;101602.53;5029001;28;20097;-67
2021/11/07 02:57:16;;;;;;;14.95;6.03;;;;;;;11.50;100.00;101590.13;5021412;28;20049;-67
2021/11/07 02:59:45;;;;;;;20.10;6.18;;;;;;;11.55;100.00;101602.47;5027624;28;20050;-67
2021/11/07 03:02:14;;;;;;;19.08;6.10;;;;;;;11.49;100.00;101602.63;5022425;28;20247;-67
2021/11/07 03:04:44;;;;;;;15.57;6.60;;;;;;;11.43;100.00;101618.78;5027028;28;20045;-67
2021/11/07 03:07:12;;;;;;;23.58;5.72;;;;;;;11.36;100.00;101622.53;5021454;28;20559;-68
2021/11/07 03:09:40;;;;;;;14.63;4.63;;;;;;;11.26;100.00;101620.97;5021233;28;20136;-68
2021/11/07 03:12:11;;;;;;;12.80;4.93;;;;;;;11.21;100.00;101623.75;5030408;28;20053;-68
2021/11/07 03:14:42;;;;;;;15.13;4.90;;;;;;;11.11;100.00;101627.53;5021737;28;20057;-68
2021/11/07 03:17:12;;;;;;;16.40;4.15;;;;;;;11.03;96.36;101630.34;5021442;28;20139;-69
2021/11/07 03:19:40;;;;;;;12.93;4.15;;;;;;;10.91;95.13;101642.16;5032748;28;20493;-68
2021/11/07 03:22:11;;;;;;;21.30;4.00;;;;;;;10.87;91.14;101640.47;5023402;28;20378;-68
2021/11/07 03:24:41;;;;;;;14.07;3.85;;;;;;;10.81;89.59;101637.94;5030018;28;21280;-68
2021/11/07 03:27:15;;;;;;;15.00;3.70;;;;;;;10.82;86.70;101645.91;5028198;28;20171;-68
2021/11/07 03:29:46;;;;;;;11.70;4.20;;;;;;;10.78;85.69;101630.88;5029973;28;20475;-68
2021/11/07 03:32:18;;;;;;;14.57;3.33;;;;;;;10.83;84.51;101634.34;5026278;28;20950;-67
2021/11/07 03:34:49;;;;;;;17.10;3.05;;;;;;;10.79;83.60;101616.59;5025360;28;20045;-67
2021/11/07 03:37:21;;;;;;;14.35;2.92;;;;;;;10.75;83.26;101632.72;5031560;28;20038;-67
2021/11/07 03:39:52;;;;;;;10.77;2.93;;;;;;;10.79;80.65;101635.28;5023891;28;20054;-67
2021/11/07 03:42:23;;;;;;;13.60;3.70;;;;;;;10.76;79.49;101631.81;5032010;28;20651;-67
2021/11/07 03:44:52;;;;;;;12.52;4.28;;;;;;;10.74;79.69;101628.28;5025107;28;20148;-67
2021/11/07 03:47:21;;;;;;;13.25;3.90;;;;;;;10.68;80.18;101637.31;5021445;28;20048;-67
2021/11/07 03:49:49;;;;;;;16.48;3.05;;;;;;;10.71;81.05;101636.34;5031916;28;20468;-73
2021/11/07 03:52:17;;;;;;;12.65;2.80;;;;;;;10.69;81.05;101617.69;5023824;28;20507;-73
2021/11/07 03:54:45;;;;;;;13.32;3.70;;;;;;;10.63;81.35;101623.19;5029289;28;20187;-73
2021/11/07 03:57:13;;;;;;;13.20;3.42;;;;;;;10.74;80.13;101622.94;5019117;28;20111;-73
2021/11/07 03:59:45;;;;;;;10.73;3.05;;;;;;;10.77;79.87;101602.41;5029667;28;20061;-73
2021/11/07 04:02:15;;;;;;;11.13;2.72;;;;;;;10.61;81.52;101615.19;5023254;28;20507;-74
2021/11/07 04:04:43;;;;;;;12.23;2.72;;;;;;;10.59;81.65;101609.03;5023164;28;21329;-73
2021/11/07 04:07:11;;;;;;;14.35;2.78;;;;;;;10.47;83.42;101614.56;5031977;28;20044;-74
2021/11/07 04:09:39;;;;;;;19.65;3.50;;;;;;;10.43;84.07;101605.75;5023817;28;20255;-73
2021/11/07 04:12:08;;;;;;;13.65;3.22;;;;;;;10.53;80.97;101614.47;5031475;28;20263;-73
2021/11/07 04:14:36;;;;;;;12.60;3.17;;;;;;;10.48;82.02;101612.81;5024020;28;20076;-74
2021/11/07 04:17:07;;;;;;;8.07;2.92;;;;;;;10.45;81.50;101617.31;5032219;28;20053;-67
2021/11/07 04:19:36;;;;;;;16.83;4.00;;;;;;;10.33;82.77;101625.50;5024986;28;20560;-67
2021/11/07 04:22:06;;;;;;;22.02;4.50;;;;;;;10.39;83.23;101613.88;5023778;28;20060;-67
2021/11/07 04:24:35;;;;;;;12.23;3.60;;;;;;;10.36;83.94;101605.91;5032204;28;20080;-67
2021/11/07 04:27:04;;;;;;;14.05;3.30;;;;;;;10.32;85.44;101604.19;5024852;28;20533;-68
2021/11/07 04:29:34;;;;;;;13.25;3.50;;;;;;;10.24;86.29;101618.53;5032550;28;20136;-67
2021/11/07 04:32:03;;;;;;;15.85;3.50;;;;;;;10.31;85.98;101597.09;5037618;28;20049;-68
2021/11/07 04:34:33;;;;;;;13.60;3.47;;;;;;;10.35;85.86;101606.81;5029971;28;20053;-67
2021/11/07 04:37:03;;;;;;;16.25;5.30;;;;;;;10.40;85.72;101612.94;5025493;28;20057;-67
2021/11/07 04:39:33;;;;;;;14.20;4.07;;;;;;;10.38;86.31;101625.44;5030422;28;20072;-67
2021/11/07 04:42:02;;;;;;;21.80;4.68;;;;;;;10.49;84.06;101611.88;5025074;28;20057;-67
2021/11/07 04:44:32;;;;;;;14.65;3.50;;;;;;;10.39;84.31;101600.53;5024324;28;20145;-67
2021/11/07 04:47:02;;;;;;;15.70;4.38;;;;;;;10.46;81.81;101605.69;5031070;28;20683;-67
2021/11/07 04:49:30;;;;;;;10.90;3.25;;;;;;;10.45;80.82;101621.72;5023824;28;20092;-67
2021/11/07 04:52:00;;;;;;;14.27;3.50;;;;;;;10.41;80.39;101599.56;5028750;28;20061;-67
2021/11/07 04:54:29;;;;;;;16.05;3.05;;;;;;;10.44;76.89;101612.00;5022038;28;20132;-67
2021/11/07 04:56:58;;;;;;;16.42;3.58;;;;;;;10.32;77.89;101604.19;5029596;28;20053;-67
2021/11/07 04:59:27;;;;;;;16.90;3.70;;;;;;;10.22;78.35;101612.34;5027357;28;20133;-67
2021/11/07 05:01:56;;;;;;;16.73;3.65;;;;;;;10.14;79.03;101603.59;5021323;28;20048;-67
2021/11/07 05:04:24;;;;;;;14.32;3.22;;;;;;;10.10;78.93;101600.13;5030147;28;20132;-68
2021/11/07 05:06:52;;;;;;;13.73;3.25;;;;;;;10.13;78.99;101598.28;5023731;28;20554;-67
2021/11/07 05:09:24;;;;;;;14.65;3.55;;;;;;;10.29;77.31;101607.78;5030376;28;20080;-67
2021/11/07 05:11:52;;;;;;;18.67;4.00;;;;;;;10.30;77.34;101612.22;5021417;28;20061;-67
2021/11/07 05:14:20;;;;;;;17.40;3.83;;;;;;;10.30;77.37;101609.56;5023163;28;20095;-67
2021/11/07 05:16:48;;;;;;;16.58;3.60;;;;;;;10.32;77.24;101602.44;5030906;28;20498;-68
2021/11/07 05:19:16;;;;;;;12.90;3.47;;;;;;;10.28;78.16;101619.34;5021711;28;20284;-67
2021/11/07 05:21:44;;;;;;;13.20;3.63;;;;;;;10.22;78.77;101608.81;5030048;28;20057;-70
2021/11/07 05:24:12;;;;;;;19.60;4.85;;;;;;;10.28;78.16;101614.00;5022780;28;20513;-67
2021/11/07 05:26:42;;;;;;;15.00;3.83;;;;;;;10.30;77.02;101614.88;5029762;28;20149;-67
2021/11/07 05:29:10;;;;;;;18.73;4.05;;;;;;;10.22;77.46;101614.13;5024839;28;20045;-67
2021/11/07 05:31:38;;;;;;;12.10;3.70;;;;;;;10.12;77.27;101618.75;5029586;28;20144;-67
2021/11/07 05:34:06;;;;;;;12.70;3.15;;;;;;;10.04;77.31;101620.66;5021312;28;20053;-67
2021/11/07 05:36:34;;;;;;;12.63;3.20;;;;;;;10.00;76.20;101627.84;5021578;28;20053;-67
2021/11/07 05:39:03;;;;;;;12.18;2.95;;;;;;;10.03;74.64;101625.13;5030138;28;20045;-67
2021/11/07 05:41:31;;;;;;;16.92;2.72;;;;;;;9.95;74.65;101624.38;5023629;28;20057;-67
2021/11/07 05:44:01;;;;;;;12.73;4.18;;;;;;;9.88;74.73;101628.94;5029070;28;20045;-66
2021/11/07 05:46:30;;;;;;;14.00;3.13;;;;;;;9.81;75.38;101615.75;5022183;28;20110;-67
2021/11/07 05:48:59;;;;;;;13.98;3.53;;;;;;;9.80;76.49;101611.31;5022205;28;20360;-67
2021/11/07 05:51:28;;;;;;;15.77;3.17;;;;;;;9.72;77.38;101625.66;5030568;28;20054;-67
2021/11/07 05:53:59;;;;;;;16.17;4.18;;;;;;;9.78;78.16;101621.13;5019704;28;20527;-67
2021/11/07 05:56:28;;;;;;;15.65;3.63;;;;;;;9.62;79.44;101618.69;5027792;28;20049;-67
2021/11/07 05:58:55;;;;;;;18.70;3.88;;;;;;;9.70;79.64;101624.78;5023497;28;20041;-67
2021/11/07 06:01:25;;;;;;;18.17;4.30;;;;;;;9.66;80.31;101624.88;5023726;28;20045;-67
2021/11/07 06:03:54;;;;;;;15.10;3.03;;;;;;;9.64;79.95;101626.69;5029291;28;20560;-74
2021/11/07 06:06:22;;;;;;;13.95;3.70;;;;;;;9.59;80.64;101632.06;5021744;28;20106;-74
2021/11/07 06:08:50;;;;;;;15.48;3.78;;;;;;;9.52;81.41;101631.28;5028293;28;20072;-74
2021/11/07 06:11:19;;;;;;;13.32;3.47;;;;;;;9.56;81.23;101636.56;5025056;28;20234;-74
2021/11/07 06:13:47;;;;;;;15.50;3.97;;;;;;;9.54;81.40;101639.25;5029263;28;20099;-74
2021/11/07 06:16:15;;;;;;;15.07;3.40;;;;;;;9.48;81.44;101632.25;5020692;28;20514;-67
2021/11/07 06:18:45;;;;;;;16.38;3.72;;;;;;;9.59;80.78;101633.88;5019338;28;20045;-67
2021/11/07 06:21:14;;;;;;;17.40;3.67;;;;;;;9.62;80.65;101636.44;5033299;28;20107;-67
2021/11/07 06:23:42;;;;;;;17.58;3.42;;;;;;;9.61;81.04;101635.59;5022064;28;20068;-67
2021/11/07 06:26:10;;;;;;;20.25;4.10;;;;;;;9.46;81.82;101634.03;5030757;28;20061;-67
2021/11/07 06:28:39;;;;;;;20.00;3.53;;;;;;;9.49;80.49;101643.78;5020768;28;20132;-67
2021/11/07 06:31:09;;;;;;;16.77;4.22;;;;;;;9.52;79.72;101641.06;5024911;28;20114;-67
2021/11/07 06:33:38;;;;;;;16.15;3.15;;;;;;;9.45;80.37;101642.94;5023185;28;20096;-67
2021/11/07 06:36:07;;;;;;;15.88;3.00;;;;;;;9.29;81.04;101630.72;5023030;28;20045;-67
2021/11/07 06:38:35;;;;;;;17.85;3.55;;;;;;;9.31;80.51;101635.16;5028374;28;20053;-67
2021/11/07 06:41:03;;;;;;;12.95;3.33;;;;;;;9.34;80.71;101642.19;5020779;28;20077;-67
2021/11/07 06:43:33;;;;;;;14.68;2.97;;;;;;;9.24;81.68;101646.75;5030086;28;20131;-67
2021/11/07 06:46:01;;;;;;;14.60;3.33;;;;;;;9.33;80.44;101638.66;5024219;28;20077;-67
2021/11/07 06:48:29;;;;;;;15.10;3.58;;;;;;;9.41;80.16;101653.66;5034351;28;20056;-67
2021/11/07 06:50:58;;;;;;;15.88;3.55;;;;;;;9.23;81.19;101646.78;5026921;28;20053;-67
2021/11/07 06:53:27;;;;;;;11.18;3.20;;;;;;;9.26;81.18;101650.31;5021902;28;20072;-67
2021/11/07 06:55:55;;;;;;;12.05;3.15;;;;;;;9.43;80.37;101657.16;5031829;28;20052;-67
2021/11/07 06:58:23;;;;;;;18.48;3.83;;;;;;;9.37;81.18;101643.97;5022529;28;20068;-67
2021/11/07 07:00:51;;;;;;;15.50;3.55;;;;;;;9.52;80.37;101655.25;5033685;28;20102;-67
2021/11/07 07:03:19;;;;;;;14.65;2.90;;;;;;;9.39;81.90;101651.00;5026790;28;20140;-67
2021/11/07 07:05:47;;;;;;;18.48;3.72;;;;;;;9.41;81.88;101651.84;5024511;28;20053;-67
2021/11/07 07:08:19;;;;;;;10.52;3.03;;;;;;;9.43;82.11;101657.16;5034921;28;20139;-67
2021/11/07 07:10:53;;;;;;;13.35;4.20;;;;;;;9.54;81.83;101653.44;5025590;28;20046;-67
2021/11/07 07:13:26;;;;;;;12.55;3.70;;;;;;;9.44;83.18;101650.94;5030150;28;20132;-67
2021/11/07 07:16:08;;;;;;;13.60;3.65;;;;;;;9.48;82.28;101655.31;5026019;28;20072;-67
2021/11/07 07:18:49;;;;;;;19.58;3.40;;;;;;;9.64;80.25;101659.53;5025297;28;20044;-68
2021/11/07 07:21:30;;;;;;;15.35;3.47;;;;;;;9.61;80.40;101664.03;5031624;28;20107;-67
2021/11/07 07:32:38;;;;;;;13.65;3.40;;;;;;;9.46;82.04;101665.13;5021421;28;20178;-67
2021/11/07 07:35:07;;;;;;;14.85;3.67;;;;;;;9.49;81.55;101673.06;5027080;28;20063;-67
2021/11/07 07:37:35;;;;;;;18.45;4.63;;;;;;;9.46;81.62;101665.13;5033272;28;20071;-67
2021/11/07 07:40:06;;;;;;;18.35;3.97;;;;;;;9.45;82.02;101672.25;5021839;28;20053;-67
2021/11/07 07:42:36;;;;;;;17.23;4.07;;;;;;;9.38;82.87;101670.56;5031421;28;20053;-67
2021/11/07 07:45:07;;;;;;;21.73;4.22;;;;;;;9.51;82.21;101660.59;5026069;28;20061;-68
2021/11/07 07:47:35;;;;;;;26.48;4.32;;;;;;;9.57;82.14;101665.84;5032383;28;20552;-69
2021/11/07 07:50:05;;;;;;;17.90;3.22;;;;;;;9.62;81.54;101665.75;5027273;28;20053;-68
2021/11/07 07:52:34;;;;;;;13.70;3.22;;;;;;;9.61;82.48;101677.34;5022757;28;21811;-67
2021/11/07 07:55:07;;;;;;;23.15;3.58;;;;;;;9.54;83.22;101668.56;5033318;28;20051;-67
2021/11/07 07:57:37;;;;;;;16.63;3.83;;;;;;;9.67;81.57;101678.13;5022809;28;20065;-67
2021/11/07 08:00:07;;;;;;;14.38;3.35;;;;;;;9.69;82.16;101671.00;5029762;28;20139;-67
2021/11/07 08:02:38;;;;;;;18.43;3.57;;;;;;;9.79;81.74;101684.16;5024660;28;20065;-67
2021/11/07 08:05:07;;;;;;;16.95;3.53;;;;;;;9.84;81.37;101684.97;5033216;28;20811;-67
2021/11/07 08:07:35;;;;;;;18.92;3.13;;;;;;;9.81;81.99;101691.25;5024921;28;20052;-67
2021/11/07 08:10:04;;;;;;;20.13;5.53;;;;;;;9.85;80.95;101687.63;5023675;28;20110;-68
2021/11/07 08:12:33;;;;;;;18.65;3.80;;;;;;;9.84;80.87;101687.63;5031190;28;20077;-67
2021/11/07 08:15:05;;;;;;;16.58;3.45;;;;;;;9.86;80.29;101678.72;5023980;28;20060;-74
2021/11/07 08:17:33;;;;;;;13.43;4.15;;;;;;;9.86;79.66;101683.19;5025298;28;20480;-74
2021/11/07 08:20:06;;;;;;;15.82;3.55;;;;;;;9.93;79.00;101675.94;5031212;28;20067;-74
2021/11/07 08:22:34;;;;;;;20.38;3.45;;;;;;;9.96;80.06;101679.47;5025224;28;20465;-74
2021/11/07 08:25:09;;;;;;;16.27;3.47;;;;;;;10.06;79.12;101686.41;5030142;28;20156;-75
2021/11/07 08:27:38;;;;;;;16.15;3.08;;;;;;;10.10;78.92;101695.25;5025014;28;20480;-74
2021/11/07 08:30:10;;;;;;;18.60;3.67;;;;;;;10.11;79.35;101688.97;5022101;28;20450;-74
2021/11/07 08:32:38;;;;;;;17.73;4.30;;;;;;;10.14;79.29;101688.06;5031022;28;20094;-67
2021/11/07 08:35:07;;;;;;;13.63;2.92;;;;;;;10.12;79.54;101689.88;5020665;28;20063;-74
2021/11/07 08:37:42;;;;;;;18.02;4.18;;;;;;;10.15;79.68;101693.38;5032917;28;20053;-74
2021/11/07 08:40:17;;;;;;;15.65;3.33;;;;;;;10.19;79.73;101696.88;5024764;28;20049;-75
2021/11/07 08:42:49;;;;;;;13.23;2.70;;;;;;;10.17;79.89;101698.69;5028941;28;20499;-76
2021/11/07 09:02:38;;;;;;;18.73;4.30;;;;;;;10.17;77.48;101688.03;5026234;28;20083;-75
2021/11/07 09:05:16;;;;;;;14.05;4.25;;;;;;;10.13;76.48;101687.19;5022504;28;20053;-74
2021/11/07 09:07:59;;;;;;;15.88;4.10;;;;;;;10.15;76.09;101676.47;5031367;28;20085;-74
2021/11/07 09:10:31;;;;;;;17.88;3.53;;;;;;;10.38;76.49;101687.66;5026042;28;20041;-74
2021/11/07 09:13:01;;;;;;;16.42;4.03;;;;;;;10.48;76.64;101696.41;5032919;28;20045;-74
2021/11/07 09:15:34;;;;;;;14.30;3.22;;;;;;;10.37;75.44;101696.59;5024182;28;20163;-74
2021/11/07 09:18:05;;;;;;;16.45;3.97;;;;;;;10.34;76.36;101695.78;5023176;28;20493;-74
2021/11/07 09:20:40;;;;;;;12.65;3.20;;;;;;;10.25;75.70;101694.97;5031457;28;20041;-74
2021/11/07 09:23:11;;;;;;;23.27;3.70;;;;;;;10.30;75.85;101708.25;5020964;28;20051;-74
2021/11/07 09:25:48;;;;;;;21.75;3.20;;;;;;;10.44;75.32;101703.56;5030062;28;20102;-76
2021/11/07 09:28:25;;;;;;;18.60;3.67;;;;;;;10.43;75.23;101698.25;5025738;28;20060;-74
2021/11/07 09:31:00;;;;;;;17.52;4.05;;;;;;;10.33;75.66;101702.88;5020278;28;20056;-74
2021/11/07 09:33:43;;;;;;;17.80;3.72;;;;;;;10.31;75.65;101701.13;5032400;28;20048;-74
2021/11/07 09:36:19;;;;;;;18.65;4.00;;;;;;;10.54;76.25;101701.63;5023581;28;20093;-74
2021/11/07 09:38:51;;;;;;;13.65;3.50;;;;;;;10.70;75.95;101702.22;5024402;28;20136;-74
2021/11/07 09:41:28;;;;;;;24.10;3.97;;;;;;;11.06;75.45;101712.22;5028709;28;20041;-73
2021/11/07 09:43:59;;;;;;;15.27;3.47;;;;;;;10.89;73.98;101697.41;5021765;28;20053;-74
2021/11/07 09:46:35;;;;;;;20.00;4.25;;;;;;;10.93;72.51;101703.56;5026465;28;20049;-76
2021/11/07 09:49:15;;;;;;;15.88;3.88;;;;;;;10.69;73.79;101713.78;5029144;28;20107;-66
2021/11/07 09:51:54;;;;;;;17.00;3.45;;;;;;;10.71;74.24;101709.31;5021790;28;20209;-67
2021/11/07 09:54:24;;;;;;;13.52;2.97;;;;;;;10.75;74.38;101707.47;5027921;28;20053;-67
2021/11/07 09:56:55;;;;;;;22.00;3.25;;;;;;;10.89;74.20;101708.06;5022467;28;20500;-66
2021/11/07 09:59:26;;;;;;;11.13;3.60;;;;;;;11.16;74.72;101705.78;5028602;28;20146;-66
2021/11/07 10:01:57;;;;;;;18.05;3.67;;;;;;;11.13;73.20;101717.38;5025067;28;20049;-70
2021/11/07 10:04:28;;;;;;;13.25;3.33;;;;;;;11.08;72.49;101695.22;5022223;28;22341;-67
2021/11/07 10:07:13;;;;;;;16.33;3.67;;;;;;;11.08;72.51;101719.28;5030436;28;20056;-66
2021/11/07 10:09:42;;;;;;;20.75;3.75;;;;;;;11.08;72.49;101710.38;5023404;28;20253;-66
2021/11/07 10:12:16;;;;;;;16.45;3.72;;;;;;;11.18;72.99;101714.63;5029307;28;20054;-66
2021/11/07 10:14:47;;;;;;;;;;;;;;;11.44;73.25;101711.41;5023574;28;20069;-74
2021/11/07 10:17:28;;;;;;;15.77;4.18;;;;;;;11.53;72.94;101705.84;5019759;28;20096;-74
2021/11/07 10:20:03;;;;;;;12.73;3.05;;;;;;;11.41;72.25;101703.47;5024330;28;20088;-74
2021/11/07 10:22:33;;;;;;;8.68;2.55;;;;;;;11.36;71.66;101711.56;5025442;28;20084;-74
2021/11/07 10:25:01;;;;;;;18.33;3.55;;;;;;;11.65;72.05;101706.50;5028671;28;20081;-74
2021/11/07 10:27:39;;;;;;;13.65;3.33;;;;;;;11.82;72.29;101714.16;5022716;28;20077;-74
2021/11/07 10:30:15;;;;;;;14.85;3.58;;;;;;;11.34;72.38;101720.50;5020583;28;20064;-74
2021/11/07 10:32:55;;;;;;;9.95;3.00;;;;;;;11.03;70.46;101722.06;5029767;28;20088;-74
2021/11/07 10:35:50;;;;;;;17.40;3.33;;;;;;;11.13;71.25;101713.84;5021797;28;20080;-74
2021/11/07 10:38:36;;;;;;;13.02;3.22;;;;;;;11.30;71.71;101708.16;5022712;28;20079;-74
2021/11/07 10:47:49;;;;;;;18.48;3.75;;;;;;;10.97;72.46;101727.50;5016097;28;20049;-67
2021/11/07 10:53:14;;;;;;;17.08;3.60;;;;;;;11.54;71.83;101710.31;5022229;28;20150;-67
2021/11/07 10:55:44;;;;;;;17.52;4.03;;;;;;;11.59;70.02;101712.84;5021953;28;20060;-67
2021/11/07 10:58:13;;;;;;;14.25;2.97;;;;;;;11.61;69.39;101708.34;5029993;28;20171;-67
2021/11/07 11:00:42;;;;;;;16.73;4.25;;;;;;;11.77;68.74;101711.56;5019214;28;20076;-67
2021/11/07 11:03:13;;;;;;;15.82;3.92;;;;;;;11.69;68.99;101722.41;5033269;28;20151;-67
2021/11/07 11:05:47;;;;;;;12.07;2.85;;;;;;;11.52;70.39;101709.44;5021268;28;20053;-74
2021/11/07 11:08:20;;;;;;;20.85;3.28;;;;;;;11.20;70.88;101707.44;5020934;28;20102;-67
2021/11/07 11:10:59;;;;;;;;;;;;;;;11.50;70.42;101716.59;5027929;28;20182;-74
2021/11/07 11:13:35;;;;;;;15.60;3.42;;;;;;;11.56;70.75;101703.13;5022706;28;19931;-74
2021/11/07 11:22:06;;;;;;;21.45;3.88;;;;;;;11.72;69.54;101708.13;5022112;28;20050;-74
2021/11/07 11:27:45;;;;;;;16.02;3.78;;;;;;;12.00;68.35;101707.50;5022847;28;20274;-67
2021/11/07 11:33:05;;;;;;;19.58;3.80;;;;;;;11.96;68.94;101717.38;5033412;28;20136;-67
2021/11/07 11:35:36;;;;;;;21.27;4.65;;;;;;;12.38;69.33;101709.22;5025325;28;20057;-67
2021/11/07 11:38:09;;;;;;;18.95;3.92;;;;;;;12.39;68.94;101716.31;5030930;28;20045;-67
2021/11/07 11:40:55;;;;;;;16.10;4.22;;;;;;;11.92;68.33;101710.38;5030843;28;20053;-67
2021/11/07 11:43:32;;;;;;;11.82;3.35;;;;;;;12.00;69.26;101715.50;5023553;28;20045;-67
2021/11/07 11:46:12;;;;;;;20.33;3.55;;;;;;;12.16;68.58;101722.25;5032022;28;20045;-67
2021/11/07 11:51:40;;;;;;;16.63;3.78;;;;;;;12.12;68.67;101725.91;5012230;28;20743;-67
2021/11/07 11:57:18;;;;;;;17.15;4.20;;;;;;;12.04;70.95;101704.72;5024096;28;20045;-68
2021/11/07 11:59:55;;;;;;;21.48;4.25;;;;;;;11.71;70.01;101706.34;5023790;28;23282;-67
2021/11/07 12:02:29;;;;;;;24.10;4.00;;;;;;;11.54;70.36;101710.31;5032068;28;20049;-67
2021/11/07 12:05:13;;;;;;;22.35;4.53;;;;;;;11.68;70.20;101703.75;5026203;28;20050;-67
2021/11/07 12:07:55;;;;;;;18.77;3.80;;;;;;;11.62;69.61;101714.59;5031727;28;20095;-67
2021/11/07 12:10:54;;;;;;;16.17;3.90;;;;;;;11.41;70.30;101719.50;5035420;28;20172;-69
2021/11/07 12:13:38;;;;;;;18.40;3.90;;;;;;;11.34;71.20;101715.16;5024236;28;20779;-67
2021/11/07 12:16:12;;;;;;;18.88;4.03;;;;;;;11.16;70.43;101722.66;5028773;28;20051;-68
2021/11/07 12:18:58;;;;;;;;;;;;;;;11.38;71.35;101700.84;5027834;28;20107;-67
2021/11/07 12:21:58;;;;;;;19.13;4.28;;;;;;;11.45;69.57;101699.78;5023626;28;20388;-67
2021/11/07 12:24:28;;;;;;;24.27;4.13;;;;;;;11.59;69.92;101696.81;5031036;28;20144;-67
2021/11/07 12:27:17;;;;;;;19.40;3.65;;;;;;;11.45;70.45;101697.13;5023612;28;20049;-67
2021/11/07 12:29:48;;;;;;;24.25;4.97;;;;;;;11.45;71.26;101697.13;5029763;28;20057;-67
2021/11/07 12:32:17;;;;;;;18.77;4.38;;;;;;;11.23;71.10;101707.41;5030161;28;20559;-67
2021/11/07 12:35:00;;;;;;;23.55;4.38;;;;;;;11.26;72.48;101698.44;5023570;28;20046;-67
2021/11/07 12:40:51;;;;;;;13.35;3.75;;;;;;;11.34;71.60;101710.72;5031823;28;20057;-67